createdAt,value
2022-11-28T00:01:37.473Z,3.20
2022-11-28T00:04:05.900Z,3.20
2022-11-28T00:06:36.922Z,3.20
2022-11-28T00:09:07.052Z,3.20
2022-11-28T00:11:35.405Z,3.20
2022-11-28T00:14:03.430Z,3.20
2022-11-28T00:16:31.489Z,3.20
2022-11-28T00:19:01.593Z,3.20
2022-11-28T00:21:31.168Z,3.20
2022-11-28T00:24:00.483Z,3.20
2022-11-28T00:26:32.083Z,3.20
2022-11-28T00:29:01.388Z,3.10
2022-11-28T00:31:31.284Z,3.10
2022-11-28T00:33:59.406Z,3.10
2022-11-28T00:36:27.383Z,3.10
2022-11-28T00:38:55.600Z,3.10
2022-11-28T00:41:25.564Z,3.10
2022-11-28T00:43:55.476Z,3.10
2022-11-28T00:46:24.539Z,3.10
2022-11-28T00:48:52.818Z,3.10
2022-11-28T00:51:22.784Z,3.20
2022-11-28T00:53:52.716Z,3.20
2022-11-28T00:56:23.239Z,3.20
2022-11-28T00:58:51.715Z,3.20
2022-11-28T01:01:23.570Z,3.20
2022-11-28T01:03:53.607Z,3.20
2022-11-28T01:06:23.627Z,3.10
2022-11-28T01:08:51.737Z,3.20
2022-11-28T01:11:20.320Z,3.10
2022-11-28T01:13:48.427Z,3.20
2022-11-28T01:16:16.883Z,3.10
2022-11-28T01:18:46.405Z,3.10
2022-11-28T01:21:14.723Z,3.10
2022-11-28T01:23:42.750Z,3.20
2022-11-28T01:26:13.079Z,3.20
2022-11-28T01:28:41.063Z,3.10
2022-11-28T01:31:12.493Z,3.10
2022-11-28T01:33:40.523Z,3.10
2022-11-28T01:36:11.404Z,3.10
2022-11-28T01:38:39.882Z,3.10
2022-11-28T01:41:08.137Z,3.10
2022-11-28T01:43:36.919Z,3.00
2022-11-28T01:46:06.799Z,3.00
2022-11-28T01:48:41.216Z,3.00
2022-11-28T01:51:11.930Z,3.00
2022-11-28T01:53:44.060Z,3.00
2022-11-28T01:56:18.669Z,3.00
2022-11-28T01:58:50.117Z,3.00
2022-11-28T02:01:19.811Z,3.00
2022-11-28T02:03:50.636Z,2.90
2022-11-28T02:06:23.285Z,3.00
2022-11-28T02:08:52.691Z,3.00
2022-11-28T02:11:46.386Z,2.90
2022-11-28T02:14:30.887Z,2.90
2022-11-28T02:17:14.199Z,3.00
2022-11-28T02:20:16.451Z,3.00
2022-11-28T02:22:52.038Z,3.00
2022-11-28T02:25:40.454Z,2.90
2022-11-28T02:28:34.674Z,3.00
2022-11-28T02:31:18.208Z,2.90
2022-11-28T02:33:50.020Z,2.90
2022-11-28T02:36:25.040Z,2.90
2022-11-28T02:39:04.445Z,2.90
2022-11-28T02:41:38.160Z,2.90
2022-11-28T02:44:15.532Z,2.90
2022-11-28T02:46:51.829Z,2.80
2022-11-28T02:49:24.847Z,2.90
2022-11-28T02:51:57.567Z,2.80
2022-11-28T02:54:27.317Z,2.90
2022-11-28T02:56:56.515Z,2.90
2022-11-28T02:59:34.114Z,2.90
2022-11-28T03:02:03.260Z,2.90
2022-11-28T03:04:40.468Z,2.90
2022-11-28T03:07:22.305Z,2.90
2022-11-28T03:09:59.571Z,2.80
2022-11-28T03:12:35.781Z,2.80
2022-11-28T03:15:07.211Z,2.80
2022-11-28T03:17:51.220Z,2.80
2022-11-28T03:20:25.160Z,2.80
2022-11-28T03:23:06.070Z,2.90
2022-11-28T03:25:38.984Z,2.80
2022-11-28T03:28:11.898Z,2.90
2022-11-28T03:30:46.087Z,2.90
2022-11-28T03:33:17.133Z,2.90
2022-11-28T03:35:50.260Z,2.90
2022-11-28T03:38:22.782Z,2.80
2022-11-28T03:40:55.853Z,2.80
2022-11-28T03:43:29.073Z,2.80
2022-11-28T03:46:00.388Z,2.80
2022-11-28T03:48:32.585Z,2.80
2022-11-28T03:51:04.623Z,2.80
2022-11-28T03:53:37.009Z,2.90
2022-11-28T03:56:11.435Z,2.90
2022-11-28T03:58:44.862Z,2.80
2022-11-28T04:01:21.987Z,2.90
2022-11-28T04:03:55.003Z,2.80
2022-11-28T04:06:29.086Z,2.80
2022-11-28T04:09:04.827Z,2.90
2022-11-28T04:11:38.555Z,2.80
2022-11-28T04:14:14.163Z,2.80
2022-11-28T04:16:53.955Z,2.90
2022-11-28T04:19:30.018Z,2.90
2022-11-28T04:22:04.140Z,2.90
2022-11-28T04:24:37.492Z,2.90
2022-11-28T04:27:09.126Z,2.90
2022-11-28T04:29:44.035Z,2.90
2022-11-28T04:32:14.742Z,2.80
2022-11-28T04:34:46.559Z,2.80
2022-11-28T04:37:17.383Z,2.80
2022-11-28T04:39:49.127Z,2.80
2022-11-28T04:42:21.751Z,2.80
2022-11-28T04:44:54.411Z,2.80
2022-11-28T04:47:23.347Z,2.80
2022-11-28T04:49:51.567Z,2.90
2022-11-28T04:52:25.354Z,2.80
2022-11-28T04:54:58.751Z,2.80
2022-11-28T04:57:31.670Z,2.90
2022-11-28T05:00:02.527Z,2.80
2022-11-28T05:02:31.336Z,2.80
2022-11-28T05:04:59.682Z,2.80
2022-11-28T05:07:29.211Z,2.90
2022-11-28T05:09:57.682Z,2.90
2022-11-28T05:12:25.692Z,2.90
2022-11-28T05:14:53.693Z,2.90
2022-11-28T05:17:21.724Z,2.80
2022-11-28T05:19:49.686Z,2.80
2022-11-28T05:22:17.685Z,2.90
2022-11-28T05:24:47.139Z,2.80
2022-11-28T05:27:15.141Z,2.80
2022-11-28T05:29:48.113Z,2.80
2022-11-28T05:32:19.946Z,2.80
2022-11-28T05:34:48.151Z,2.80
2022-11-28T05:37:16.804Z,2.80
2022-11-28T05:39:46.159Z,2.80
2022-11-28T05:42:14.128Z,2.80
2022-11-28T05:44:42.124Z,2.80
2022-11-28T05:47:10.197Z,2.80
2022-11-28T05:49:38.223Z,2.80
2022-11-28T05:52:06.262Z,2.80
2022-11-28T05:54:34.316Z,2.80
2022-11-28T05:57:06.179Z,2.80
2022-11-28T05:59:34.443Z,2.80
2022-11-28T06:02:02.532Z,2.80
2022-11-28T06:04:30.600Z,2.80
2022-11-28T06:06:58.604Z,2.80
2022-11-28T06:09:26.608Z,2.70
2022-11-28T06:11:54.715Z,2.70
2022-11-28T06:14:24.069Z,2.70
2022-11-28T06:16:52.583Z,2.70
2022-11-28T06:19:20.632Z,2.80
2022-11-28T06:21:50.797Z,2.70
2022-11-28T06:24:21.859Z,2.80
2022-11-28T06:26:49.887Z,2.70
2022-11-28T06:29:17.860Z,2.70
2022-11-28T06:31:47.345Z,2.70
2022-11-28T06:34:15.446Z,2.70
2022-11-28T06:36:44.576Z,2.70
2022-11-28T06:39:15.647Z,2.80
2022-11-28T06:41:44.216Z,2.70
2022-11-28T06:44:15.106Z,2.70
2022-11-28T06:46:43.796Z,2.80
2022-11-28T06:49:13.986Z,2.70
2022-11-28T06:51:42.906Z,2.70
2022-11-28T06:54:11.121Z,2.80
2022-11-28T06:56:40.738Z,2.70
2022-11-28T06:59:11.276Z,2.80
2022-11-28T07:01:39.428Z,2.80
2022-11-28T07:04:07.501Z,2.80
2022-11-28T07:06:36.944Z,2.80
2022-11-28T07:09:05.599Z,2.80
2022-11-28T07:11:33.869Z,2.80
2022-11-28T07:14:02.982Z,2.80
2022-11-28T07:16:33.277Z,2.80
2022-11-28T07:19:01.867Z,2.80
2022-11-28T07:21:30.855Z,2.90
2022-11-28T07:24:00.915Z,2.80
2022-11-28T07:26:28.966Z,2.90
2022-11-28T07:28:58.261Z,2.80
2022-11-28T07:31:31.706Z,2.80
2022-11-28T07:34:02.138Z,2.80
2022-11-28T07:36:31.176Z,2.90
2022-11-28T07:39:02.908Z,2.90
2022-11-28T07:41:30.912Z,2.90
2022-11-28T07:44:00.362Z,2.90
2022-11-28T07:46:31.031Z,2.90
2022-11-28T07:48:59.189Z,2.90
2022-11-28T07:51:29.470Z,3.00
2022-11-28T07:53:57.746Z,2.90
2022-11-28T07:56:39.349Z,3.00
2022-11-28T07:59:17.560Z,3.00
2022-11-28T08:01:45.673Z,3.00
2022-11-28T08:04:13.758Z,3.00
2022-11-28T08:06:44.310Z,3.00
2022-11-28T08:09:13.045Z,3.00
2022-11-28T08:11:43.003Z,3.00
2022-11-28T08:14:12.171Z,3.00
2022-11-28T08:16:44.789Z,3.10
2022-11-28T08:19:13.267Z,3.10
2022-11-28T08:21:41.380Z,3.10
2022-11-28T08:24:09.896Z,3.20
2022-11-28T08:26:37.926Z,3.20
2022-11-28T08:29:07.447Z,3.20
2022-11-28T08:31:37.571Z,3.20
2022-11-28T08:34:07.200Z,3.20
2022-11-28T08:36:35.236Z,3.20
2022-11-28T08:41:54.226Z,3.20
2022-11-28T08:44:23.620Z,3.30
2022-11-28T08:46:51.720Z,3.30
2022-11-28T08:49:19.862Z,3.30
2022-11-28T08:51:47.858Z,3.40
2022-11-28T08:54:16.436Z,3.40
2022-11-28T08:56:45.239Z,3.40
2022-11-28T08:59:16.447Z,3.40
2022-11-28T09:01:45.985Z,3.50
2022-11-28T09:04:14.130Z,3.50
2022-11-28T09:06:42.407Z,3.50
2022-11-28T09:09:10.461Z,3.50
2022-11-28T09:11:38.737Z,3.50
2022-11-28T09:14:07.491Z,3.60
2022-11-28T09:16:35.599Z,3.60
2022-11-28T09:19:06.879Z,3.70
2022-11-28T09:21:34.900Z,3.70
2022-11-28T09:24:03.003Z,3.80
2022-11-28T09:26:34.079Z,3.80
2022-11-28T09:29:02.394Z,3.80
2022-11-28T09:31:30.436Z,3.90
2022-11-28T09:33:58.521Z,3.90
2022-11-28T09:36:28.580Z,4.00
2022-11-28T09:38:56.563Z,4.00
2022-11-28T09:41:51.112Z,4.10
2022-11-28T09:44:23.917Z,4.10
2022-11-28T09:46:55.778Z,4.20
2022-11-28T09:49:36.718Z,4.40
2022-11-28T09:52:22.809Z,4.40
2022-11-28T09:54:59.532Z,4.50
2022-11-28T09:57:33.557Z,4.50
2022-11-28T10:00:02.419Z,4.60
2022-11-28T10:02:36.804Z,4.60
2022-11-28T10:05:15.771Z,4.60
2022-11-28T10:07:59.370Z,4.60
2022-11-28T10:10:39.371Z,4.70
2022-11-28T10:13:14.900Z,4.70
2022-11-28T10:15:50.555Z,4.80
2022-11-28T10:18:29.276Z,4.90
2022-11-28T10:21:01.696Z,5.00
2022-11-28T10:23:35.761Z,5.10
2022-11-28T10:26:08.536Z,5.20
2022-11-28T10:28:39.225Z,5.30
2022-11-28T10:31:10.612Z,5.40
2022-11-28T10:33:44.334Z,5.40
2022-11-28T10:36:21.716Z,5.50
2022-11-28T10:38:53.714Z,5.50
2022-11-28T10:41:28.755Z,5.60
2022-11-28T10:44:02.999Z,5.60
2022-11-28T10:46:50.905Z,5.60
2022-11-28T10:49:30.242Z,5.70
2022-11-28T10:52:05.039Z,5.80
2022-11-28T10:54:52.787Z,5.80
2022-11-28T10:57:25.324Z,5.80
2022-11-28T11:00:04.037Z,5.80
2022-11-28T11:02:41.220Z,5.80
2022-11-28T11:05:14.365Z,5.70
2022-11-28T11:07:48.056Z,5.70
2022-11-28T11:10:19.385Z,5.70
2022-11-28T11:12:48.556Z,5.60
2022-11-28T11:15:21.328Z,5.60
2022-11-28T11:17:50.892Z,5.60
2022-11-28T11:20:33.449Z,5.50
2022-11-28T11:23:03.421Z,5.50
2022-11-28T11:25:33.632Z,5.50
2022-11-28T11:28:05.173Z,5.40
2022-11-28T11:30:38.853Z,5.40
2022-11-28T11:33:13.770Z,5.40
2022-11-28T11:35:46.032Z,5.40
2022-11-28T11:38:19.756Z,5.40
2022-11-28T11:40:51.956Z,5.40
2022-11-28T11:43:34.080Z,5.30
2022-11-28T11:46:07.298Z,5.30
2022-11-28T11:48:37.645Z,5.30
2022-11-28T11:51:06.008Z,5.30
2022-11-28T11:53:34.059Z,5.20
2022-11-28T11:56:05.241Z,5.20
2022-11-28T11:58:42.401Z,5.20
2022-11-28T12:01:12.986Z,5.20
2022-11-28T12:03:47.437Z,5.20
2022-11-28T12:06:22.998Z,5.20
2022-11-28T12:08:52.840Z,5.20
2022-11-28T12:11:27.543Z,5.20
2022-11-28T12:13:58.353Z,5.20
2022-11-28T12:16:39.199Z,5.20
2022-11-28T12:19:20.294Z,5.20
2022-11-28T12:22:03.769Z,5.20
2022-11-28T12:24:41.756Z,5.20
2022-11-28T12:27:31.894Z,5.20
2022-11-28T12:30:10.944Z,5.20
2022-11-28T12:32:49.052Z,5.20
2022-11-28T12:35:28.688Z,5.10
2022-11-28T12:38:11.125Z,5.10
2022-11-28T12:40:51.160Z,5.10
2022-11-28T12:43:35.473Z,5.10
2022-11-28T12:46:12.245Z,5.00
2022-11-28T12:48:53.996Z,5.00
2022-11-28T12:51:30.924Z,5.00
2022-11-28T12:54:11.238Z,5.00
2022-11-28T12:56:51.560Z,4.90
2022-11-28T12:59:27.946Z,5.00
2022-11-28T13:02:08.246Z,4.90
2022-11-28T13:05:00.940Z,5.00
2022-11-28T13:07:40.951Z,4.90
2022-11-28T13:10:18.966Z,4.90
2022-11-28T13:12:55.204Z,4.90
2022-11-28T13:15:37.575Z,4.90
2022-11-28T13:18:18.599Z,4.90
2022-11-28T13:20:53.368Z,5.00
2022-11-28T13:23:28.568Z,5.00
2022-11-28T13:26:04.354Z,5.00
2022-11-28T13:28:39.694Z,4.90
2022-11-28T13:31:22.718Z,4.90
2022-11-28T13:33:53.028Z,4.90
2022-11-28T13:39:31.258Z,4.90
2022-11-28T13:45:02.846Z,4.90
2022-11-28T13:47:36.015Z,4.90
2022-11-28T13:50:41.875Z,4.90
2022-11-28T13:53:26.180Z,4.90
2022-11-28T13:56:24.734Z,4.90
2022-11-28T13:58:59.140Z,4.90
2022-11-28T14:01:28.529Z,4.90
2022-11-28T14:04:08.684Z,4.90
2022-11-28T14:06:44.675Z,4.90
2022-11-28T14:09:29.649Z,4.90
2022-11-28T14:12:28.880Z,4.90
2022-11-28T14:15:10.713Z,4.90
2022-11-28T14:17:52.009Z,4.80
2022-11-28T14:20:33.216Z,4.80
2022-11-28T14:23:22.126Z,4.80
2022-11-28T14:25:51.802Z,4.80
2022-11-28T14:28:25.516Z,4.80
2022-11-28T14:31:02.190Z,4.70
2022-11-28T14:33:36.787Z,4.70
2022-11-28T14:36:24.695Z,4.70
2022-11-28T14:39:20.836Z,4.60
2022-11-28T14:42:58.747Z,4.50
2022-11-28T14:45:40.939Z,4.50
2022-11-28T14:48:18.000Z,4.50
2022-11-28T14:50:55.926Z,4.40
2022-11-28T14:53:45.530Z,4.40
2022-11-28T14:56:27.528Z,4.30
2022-11-28T14:58:59.105Z,4.20
2022-11-28T15:01:52.391Z,4.20
2022-11-28T15:04:44.617Z,4.20
2022-11-28T15:07:27.634Z,4.10
2022-11-28T15:10:08.073Z,4.10
2022-11-28T15:12:51.807Z,4.10
2022-11-28T15:15:20.473Z,4.00
2022-11-28T15:17:52.405Z,3.90
2022-11-28T15:20:25.607Z,3.90
2022-11-28T15:22:56.083Z,3.90
2022-11-28T15:25:27.136Z,3.80
2022-11-28T15:27:56.794Z,3.80
2022-11-28T15:30:27.074Z,3.70
2022-11-28T15:32:58.720Z,3.70
2022-11-28T15:35:27.713Z,3.70
2022-11-28T15:37:57.985Z,3.60
2022-11-28T15:40:32.781Z,3.60
2022-11-28T15:43:01.756Z,3.50
2022-11-28T15:45:32.313Z,3.50
2022-11-28T15:48:00.670Z,3.50
2022-11-28T15:50:31.425Z,3.40
2022-11-28T15:53:00.937Z,3.40
2022-11-28T15:55:32.640Z,3.40
2022-11-28T15:58:21.488Z,3.40
2022-11-28T16:00:55.350Z,3.30
2022-11-28T16:03:27.264Z,3.30
2022-11-28T16:05:58.553Z,3.20
2022-11-28T16:08:30.151Z,3.20
2022-11-28T16:11:01.324Z,3.20
2022-11-28T16:13:31.468Z,3.10
2022-11-28T16:16:01.434Z,3.10
2022-11-28T16:18:30.603Z,3.10
2022-11-28T16:21:00.915Z,3.10
2022-11-28T16:23:31.231Z,3.00
2022-11-28T16:26:05.999Z,3.00
2022-11-28T16:28:35.792Z,3.00
2022-11-28T16:31:10.934Z,3.00
2022-11-28T16:33:41.243Z,2.90
2022-11-28T16:36:14.353Z,2.90
2022-11-28T16:38:43.772Z,2.90
2022-11-28T16:41:19.087Z,2.90
2022-11-28T16:43:51.012Z,2.80
2022-11-28T16:46:22.796Z,2.80
2022-11-28T16:48:54.593Z,2.80
2022-11-28T16:51:33.269Z,2.80
2022-11-28T16:54:02.155Z,2.70
2022-11-28T16:56:45.379Z,2.70
2022-11-28T16:59:15.924Z,2.70
2022-11-28T17:01:46.073Z,2.70
2022-11-28T17:04:22.547Z,2.60
2022-11-28T17:06:50.978Z,2.60
2022-11-28T17:09:19.440Z,2.60
2022-11-28T17:11:55.466Z,2.60
2022-11-28T17:14:23.480Z,2.60
2022-11-28T17:16:51.803Z,2.50
2022-11-28T17:19:19.868Z,2.50
2022-11-28T17:21:51.049Z,2.50
2022-11-28T17:24:23.122Z,2.50
2022-11-28T17:26:54.041Z,2.50
2022-11-28T17:29:22.875Z,2.50
2022-11-28T17:31:51.110Z,2.50
2022-11-28T17:34:21.520Z,2.40
2022-11-28T17:36:50.142Z,2.40
2022-11-28T17:39:18.779Z,2.40
2022-11-28T17:41:47.821Z,2.30
2022-11-28T17:44:22.446Z,2.30
2022-11-28T17:46:51.489Z,2.30
2022-11-28T17:49:20.272Z,2.30
2022-11-28T17:51:48.480Z,2.30
2022-11-28T17:54:18.830Z,2.20
2022-11-28T17:56:47.732Z,2.20
2022-11-28T17:59:18.595Z,2.20
2022-11-28T18:01:47.261Z,2.20
2022-11-28T18:04:15.675Z,2.20
2022-11-28T18:06:45.183Z,2.10
2022-11-28T18:09:14.811Z,2.10
2022-11-28T18:11:46.249Z,2.10
2022-11-28T18:14:14.550Z,2.10
2022-11-28T18:16:44.170Z,2.10
2022-11-28T18:19:14.852Z,2.00
2022-11-28T18:21:42.951Z,2.00
2022-11-28T18:24:10.950Z,2.00
2022-11-28T18:26:38.989Z,2.00
2022-11-28T18:29:07.968Z,2.00
2022-11-28T18:31:37.258Z,2.00
2022-11-28T18:34:07.908Z,1.90
2022-11-28T18:36:38.350Z,2.00
2022-11-28T18:39:09.333Z,2.00
2022-11-28T18:41:39.364Z,1.90
2022-11-28T18:44:07.905Z,1.90
2022-11-28T18:46:36.463Z,1.90
2022-11-28T18:49:06.065Z,1.90
2022-11-28T18:51:36.782Z,1.90
2022-11-28T18:54:06.229Z,1.90
2022-11-28T18:56:35.001Z,1.90
2022-11-28T18:59:03.047Z,1.80
2022-11-28T19:01:33.141Z,1.80
2022-11-28T19:04:02.970Z,1.80
2022-11-28T19:06:33.092Z,1.80
2022-11-28T19:09:03.095Z,1.80
2022-11-28T19:11:33.556Z,1.80
2022-11-28T19:14:01.640Z,1.80
2022-11-28T19:16:31.709Z,1.80
2022-11-28T19:19:01.543Z,1.80
2022-11-28T19:21:34.037Z,1.70
2022-11-28T19:24:02.971Z,1.70
2022-11-28T19:26:33.603Z,1.70
2022-11-28T19:29:02.247Z,1.70
2022-11-28T19:31:31.818Z,1.70
2022-11-28T19:34:01.982Z,1.70
2022-11-28T19:36:31.075Z,1.70
2022-11-28T19:39:00.912Z,1.60
2022-11-28T19:41:29.848Z,1.60
2022-11-28T19:43:58.005Z,1.60
2022-11-28T19:46:29.215Z,1.60
2022-11-28T19:49:00.179Z,1.60
2022-11-28T19:51:28.425Z,1.60
2022-11-28T19:54:02.669Z,1.50
2022-11-28T19:56:32.895Z,1.50
2022-11-28T19:59:01.364Z,1.50
2022-11-28T20:01:31.183Z,1.50
2022-11-28T20:03:59.780Z,1.50
2022-11-28T20:06:29.704Z,1.50
2022-11-28T20:09:00.676Z,1.40
2022-11-28T20:11:32.180Z,1.40
2022-11-28T20:14:04.021Z,1.40
2022-11-28T20:16:33.346Z,1.40
2022-11-28T20:19:02.785Z,1.40
2022-11-28T20:21:31.873Z,1.30
2022-11-28T20:24:04.276Z,1.40
2022-11-28T20:26:37.929Z,1.30
2022-11-28T20:29:08.203Z,1.30
2022-11-28T20:31:37.984Z,1.30
2022-11-28T20:34:07.099Z,1.30
2022-11-28T20:36:36.276Z,1.30
2022-11-28T20:39:05.832Z,1.30
2022-11-28T20:41:34.521Z,1.30
2022-11-28T20:44:02.624Z,1.30
2022-11-28T20:46:35.570Z,1.20
2022-11-28T20:49:05.521Z,1.20
2022-11-28T20:51:35.433Z,1.20
2022-11-28T20:54:06.103Z,1.20
2022-11-28T20:57:05.004Z,1.20
2022-11-28T20:59:27.156Z,1.10
2022-11-28T21:01:56.620Z,1.10
2022-11-28T21:04:24.665Z,1.10
2022-11-28T21:06:52.768Z,1.10
2022-11-28T21:09:20.818Z,1.10
2022-11-28T21:11:58.655Z,1.10
2022-11-28T21:14:27.946Z,1.10
2022-11-28T21:16:57.587Z,1.00
2022-11-28T21:19:25.892Z,1.10
2022-11-28T21:21:53.968Z,1.00
2022-11-28T21:24:22.318Z,1.00
2022-11-28T21:26:54.056Z,1.00
2022-11-28T21:29:23.455Z,1.00
2022-11-28T21:31:51.551Z,1.00
2022-11-28T21:34:22.314Z,1.00
2022-11-28T21:36:50.870Z,1.00
2022-11-28T21:39:21.857Z,1.00
2022-11-28T21:41:53.184Z,1.00
2022-11-28T21:44:21.201Z,0.90
2022-11-28T21:46:49.329Z,0.90
2022-11-28T21:49:17.310Z,0.90
2022-11-28T21:51:47.093Z,0.80
2022-11-28T21:54:15.106Z,0.90
2022-11-28T21:56:43.145Z,0.80
2022-11-28T21:59:13.437Z,0.80
2022-11-28T22:01:41.621Z,0.80
2022-11-28T22:04:11.420Z,0.80
2022-11-28T22:06:39.493Z,0.80
2022-11-28T22:09:10.220Z,0.80
2022-11-28T22:11:39.557Z,0.80
2022-11-28T22:14:09.153Z,0.80
2022-11-28T22:16:37.231Z,0.80
2022-11-28T22:19:05.249Z,0.80
2022-11-28T22:24:22.826Z,0.80
2022-11-28T22:26:51.047Z,0.70
2022-11-28T22:29:19.115Z,0.70
2022-11-28T22:31:47.215Z,0.70
2022-11-28T22:34:15.269Z,0.70
2022-11-28T22:36:43.231Z,0.70
2022-11-28T22:39:11.723Z,0.70
2022-11-28T22:41:41.345Z,0.70
2022-11-28T22:44:11.223Z,0.70
2022-11-28T22:46:39.521Z,0.70
2022-11-28T22:49:07.979Z,0.70
2022-11-28T22:51:36.973Z,0.60
2022-11-28T22:54:05.276Z,0.60
2022-11-28T22:56:35.500Z,0.60
2022-11-28T22:59:05.758Z,0.60
2022-11-28T23:01:35.170Z,0.60
2022-11-28T23:04:03.209Z,0.60
2022-11-28T23:06:32.989Z,0.60
2022-11-28T23:09:02.673Z,0.60
2022-11-28T23:11:32.687Z,0.60
2022-11-28T23:14:01.258Z,0.60
2022-11-28T23:16:32.438Z,0.60
2022-11-28T23:19:02.904Z,0.60
2022-11-28T23:21:33.108Z,0.60
2022-11-28T23:24:01.450Z,0.60
2022-11-28T23:26:31.347Z,0.50
2022-11-28T23:29:01.210Z,0.50
2022-11-28T23:31:32.673Z,0.50
2022-11-28T23:34:01.642Z,0.50
2022-11-28T23:36:33.715Z,0.50
2022-11-28T23:39:07.988Z,0.40
2022-11-28T23:41:36.221Z,0.50
2022-11-28T23:44:04.186Z,0.40
2022-11-28T23:46:34.507Z,0.40
2022-11-28T23:49:05.263Z,0.40
2022-11-28T23:51:33.683Z,0.40
2022-11-28T23:54:01.755Z,0.40
2022-11-28T23:56:31.355Z,0.40
2022-11-28T23:59:02.320Z,0.40
